Time;durP1;ratioP1;P1;durP2;ratioP2;P2;SDS_P1;SDS_P2;PMS_P1;PMS_P2;Temp;Humidity;BMP_temperature;BMP_pressure;BME280_temperature;BME280_humidity;BME280_pressure;Samples;Min_cycle;Max_cycle;Signal;HPM_P1;HPM_P2
2022/11/22 00:01:23;;;;;;;37.20;9.10;;;;;;;;;;6183145;23;20156;-91
2022/11/22 00:04:29;;;;;;;18.33;7.70;;;;;;;;;;6181300;23;20216;-90
2022/11/22 00:07:34;;;;;;;33.67;7.10;;;;;;;;;;6180801;23;20164;-89
2022/11/22 00:10:41;;;;;;;22.30;7.60;;;;;;;;;;6182410;23;20175;-90
2022/11/22 00:13:48;;;;;;;23.50;7.93;;;;;;;;;;6160481;23;20647;-91
2022/11/22 00:16:53;;;;;;;22.30;8.13;;;;;;;;;;6157560;23;20188;-93
2022/11/22 00:19:59;;;;;;;16.47;7.00;;;;;;;;;;6177039;23;20559;-88
2022/11/22 00:23:08;;;;;;;17.37;7.03;;;;;;;;;;6072409;23;20618;-90
2022/11/22 00:26:15;;;;;;;13.17;6.17;;;;;;;;;;5844655;24;20184;-92
2022/11/22 01:19:18;;;;;;;15.97;6.60;;;;;;;;;;6181569;22;1340715;-90
2022/11/22 01:22:23;;;;;;;21.13;7.27;;;;;;;;;;6238191;23;20170;-89
2022/11/22 01:25:28;;;;;;;28.93;7.50;;;;;;;;;;6236270;23;20182;-90
2022/11/22 01:28:34;;;;;;;18.10;6.87;;;;;;;;;;6236428;23;20167;-91
2022/11/22 01:31:39;;;;;;;19.80;6.63;;;;;;;;;;6237113;23;20155;-89
2022/11/22 01:34:45;;;;;;;13.77;6.77;;;;;;;;;;6236775;23;20198;-90
2022/11/22 01:37:51;;;;;;;21.30;7.13;;;;;;;;;;6237812;23;20622;-89
2022/11/22 01:40:56;;;;;;;13.13;6.37;;;;;;;;;;6238718;23;20162;-90
2022/11/22 01:44:16;;;;;;;21.23;6.77;;;;;;;;;;6237651;23;20186;-88
2022/11/22 01:47:22;;;;;;;22.67;6.73;;;;;;;;;;6230459;23;20167;-90
2022/11/22 01:50:29;;;;;;;19.13;5.93;;;;;;;;;;6230196;23;20167;-90
2022/11/22 01:53:35;;;;;;;17.93;6.50;;;;;;;;;;6230928;23;20267;-89
2022/11/22 01:56:42;;;;;;;22.47;6.50;;;;;;;;;;6229128;23;20241;-89
2022/11/22 01:59:50;;;;;;;31.70;7.13;;;;;;;;;;6228829;23;20239;-89
2022/11/22 02:02:57;;;;;;;59.23;7.70;;;;;;;;;;6230097;23;20216;-90
2022/11/22 02:06:03;;;;;;;15.17;6.83;;;;;;;;;;6229215;23;20679;-89
2022/11/22 02:09:11;;;;;;;14.50;6.60;;;;;;;;;;6230515;23;20216;-89
2022/11/22 02:12:16;;;;;;;18.90;7.17;;;;;;;;;;6230619;23;20527;-89
2022/11/22 02:15:22;;;;;;;37.57;7.27;;;;;;;;;;6231056;23;20182;-91
2022/11/22 02:18:27;;;;;;;15.97;6.40;;;;;;;;;;6229892;23;20210;-93
2022/11/22 02:21:33;;;;;;;14.13;6.83;;;;;;;;;;6230405;23;20214;-91
2022/11/22 02:24:42;;;;;;;27.73;6.57;;;;;;;;;;6230512;23;20215;-89
2022/11/22 02:27:49;;;;;;;15.53;6.67;;;;;;;;;;6230348;23;20206;-90
2022/11/22 02:30:55;;;;;;;32.43;6.60;;;;;;;;;;6229991;23;20167;-92
2022/11/22 02:34:00;;;;;;;127.83;10.30;;;;;;;;;;6231053;23;20203;-88
2022/11/22 02:37:05;;;;;;;29.73;7.30;;;;;;;;;;6229768;23;20170;-88
2022/11/22 02:40:13;;;;;;;126.87;9.80;;;;;;;;;;6230396;23;20195;-90
2022/11/22 02:43:21;;;;;;;28.57;6.73;;;;;;;;;;6230221;23;20235;-90
2022/11/22 02:46:34;;;;;;;92.30;8.80;;;;;;;;;;6230344;23;20168;-90
2022/11/22 02:49:39;;;;;;;34.00;6.93;;;;;;;;;;6230255;23;20622;-88
2022/11/22 02:52:44;;;;;;;38.03;7.90;;;;;;;;;;6229845;23;20642;-90
2022/11/22 02:55:49;;;;;;;35.73;7.37;;;;;;;;;;6228919;23;20191;-91
2022/11/22 02:58:56;;;;;;;21.83;7.07;;;;;;;;;;6228576;23;20618;-91
2022/11/22 03:02:01;;;;;;;47.60;6.90;;;;;;;;;;6229298;23;20167;-91
2022/11/22 03:05:07;;;;;;;21.50;5.80;;;;;;;;;;6228100;23;20175;-89
2022/11/22 03:08:12;;;;;;;23.77;6.47;;;;;;;;;;6229598;23;20147;-90
2022/11/22 03:11:17;;;;;;;20.10;6.20;;;;;;;;;;6228895;23;20279;-91
2022/11/22 03:14:23;;;;;;;82.27;8.27;;;;;;;;;;6228163;23;20191;-90
2022/11/22 03:17:28;;;;;;;77.70;7.90;;;;;;;;;;6227821;23;20170;-89
2022/11/22 03:20:34;;;;;;;56.30;7.73;;;;;;;;;;6227254;23;20186;-90
2022/11/22 03:23:39;;;;;;;20.07;6.97;;;;;;;;;;6228389;23;20214;-91
2022/11/22 03:26:47;;;;;;;63.47;7.40;;;;;;;;;;6229519;23;20219;-92
2022/11/22 03:29:54;;;;;;;46.37;7.73;;;;;;;;;;6229272;23;20211;-91
2022/11/22 03:32:59;;;;;;;41.10;7.10;;;;;;;;;;6229767;23;20587;-88
2022/11/22 03:36:04;;;;;;;40.50;6.60;;;;;;;;;;6229868;23;20242;-89
2022/11/22 03:39:10;;;;;;;52.73;7.70;;;;;;;;;;6229783;23;20576;-91
2022/11/22 03:42:15;;;;;;;27.80;6.67;;;;;;;;;;6230425;23;20167;-90
2022/11/22 03:45:24;;;;;;;26.73;6.57;;;;;;;;;;6229886;23;20362;-89
2022/11/22 03:48:31;;;;;;;12.97;6.00;;;;;;;;;;6227556;23;20163;-90
2022/11/22 03:51:35;;;;;;;26.37;5.97;;;;;;;;;;6229420;23;20151;-91
2022/11/22 03:54:41;;;;;;;38.83;6.93;;;;;;;;;;6227659;23;20194;-90
2022/11/22 03:57:46;;;;;;;23.97;6.47;;;;;;;;;;6230474;23;20166;-90
2022/11/22 04:00:52;;;;;;;24.57;5.80;;;;;;;;;;6231172;23;20179;-90
2022/11/22 04:03:58;;;;;;;19.70;5.63;;;;;;;;;;6231138;23;20175;-92
2022/11/22 04:07:03;;;;;;;10.10;5.43;;;;;;;;;;6231346;23;20175;-90
2022/11/22 04:10:08;;;;;;;10.87;5.20;;;;;;;;;;6230799;23;20511;-90
2022/11/22 04:13:14;;;;;;;12.73;5.40;;;;;;;;;;6229653;23;20171;-92
2022/11/22 04:16:19;;;;;;;14.63;5.67;;;;;;;;;;6230664;23;20204;-91
2022/11/22 04:19:24;;;;;;;13.37;5.53;;;;;;;;;;6230169;23;20277;-90
2022/11/22 04:22:28;;;;;;;19.63;5.93;;;;;;;;;;6229398;23;20206;-89
2022/11/22 04:25:34;;;;;;;13.47;5.60;;;;;;;;;;6229964;23;20171;-90
2022/11/22 04:28:40;;;;;;;9.97;5.73;;;;;;;;;;6228367;23;20209;-91
2022/11/22 04:35:10;;;;;;;13.23;5.47;;;;;;;;;;6229801;23;20190;-91
2022/11/22 04:38:16;;;;;;;13.17;6.03;;;;;;;;;;6231286;23;20155;-89
2022/11/22 04:41:22;;;;;;;14.40;6.10;;;;;;;;;;6230848;23;20230;-91
2022/11/22 04:47:59;;;;;;;12.83;6.57;;;;;;;;;;6230331;23;20163;-93
2022/11/22 04:54:28;;;;;;;15.70;6.90;;;;;;;;;;6230150;23;20191;-92
2022/11/22 04:57:33;;;;;;;16.67;7.13;;;;;;;;;;6230647;23;20500;-92
2022/11/22 05:00:40;;;;;;;20.80;6.90;;;;;;;;;;6228544;23;20187;-89
2022/11/22 05:03:46;;;;;;;12.87;6.57;;;;;;;;;;6229992;23;20209;-90
2022/11/22 05:06:51;;;;;;;13.20;6.67;;;;;;;;;;6231566;23;20175;-90
2022/11/22 05:09:58;;;;;;;15.83;6.87;;;;;;;;;;6231127;23;20174;-91
2022/11/22 05:13:03;;;;;;;22.37;7.40;;;;;;;;;;6231651;23;20287;-90
2022/11/22 05:16:09;;;;;;;15.80;7.63;;;;;;;;;;6230519;23;20174;-93
2022/11/22 05:19:15;;;;;;;20.07;7.37;;;;;;;;;;6228871;23;20190;-88
2022/11/22 05:23:53;;;;;;;15.70;7.33;;;;;;;;;;6229890;23;20263;-90
2022/11/22 05:25:44;;;;;;;15.37;6.00;;;;;;;;;;6231630;23;20198;-92
2022/11/22 05:28:50;;;;;;;13.47;6.23;;;;;;;;;;6233295;23;20497;-90
2022/11/22 05:32:03;;;;;;;14.63;5.70;;;;;;;;;;6234828;23;20242;-88
2022/11/22 05:35:10;;;;;;;12.37;5.97;;;;;;;;;;6235947;23;20253;-87
2022/11/22 05:38:16;;;;;;;14.57;6.93;;;;;;;;;;6234624;23;20175;-89
2022/11/22 05:41:21;;;;;;;14.40;6.10;;;;;;;;;;6235343;23;20164;-93
2022/11/22 05:44:29;;;;;;;12.83;5.50;;;;;;;;;;6234111;23;20186;-89
2022/11/22 05:47:38;;;;;;;12.30;6.23;;;;;;;;;;6233853;23;20175;-90
2022/11/22 05:50:45;;;;;;;12.63;6.03;;;;;;;;;;6233429;23;20231;-90
2022/11/22 05:53:51;;;;;;;13.93;5.90;;;;;;;;;;6235136;23;20163;-90
2022/11/22 05:56:56;;;;;;;12.47;5.77;;;;;;;;;;6232805;23;20195;-92
2022/11/22 06:00:02;;;;;;;14.17;6.30;;;;;;;;;;6231999;23;20178;-91
2022/11/22 06:03:16;;;;;;;13.43;6.37;;;;;;;;;;6232364;23;20194;-90
2022/11/22 06:06:37;;;;;;;11.97;6.27;;;;;;;;;;6232278;23;20232;-89
2022/11/22 06:09:44;;;;;;;13.63;6.47;;;;;;;;;;6233336;23;20167;-91
2022/11/22 06:12:50;;;;;;;11.40;5.90;;;;;;;;;;6233175;23;20617;-90
2022/11/22 06:16:00;;;;;;;10.57;5.57;;;;;;;;;;6232129;23;20202;-90
2022/11/22 06:19:06;;;;;;;11.80;5.93;;;;;;;;;;6232380;23;20190;-89
2022/11/22 06:22:12;;;;;;;11.07;5.63;;;;;;;;;;6231234;23;20175;-90
2022/11/22 06:25:18;;;;;;;15.57;5.33;;;;;;;;;;6234641;23;20166;-89
2022/11/22 06:28:24;;;;;;;8.40;4.93;;;;;;;;;;6232704;23;20190;-91
2022/11/22 06:31:29;;;;;;;9.27;5.10;;;;;;;;;;6231287;23;20295;-90
2022/11/22 06:34:34;;;;;;;12.50;5.90;;;;;;;;;;6232280;23;20268;-89
2022/11/22 06:37:40;;;;;;;13.83;5.97;;;;;;;;;;6232064;23;20170;-90
2022/11/22 06:40:47;;;;;;;13.70;6.70;;;;;;;;;;6232419;23;20166;-88
2022/11/22 06:43:53;;;;;;;14.17;6.03;;;;;;;;;;6232511;23;20238;-88
2022/11/22 06:47:38;;;;;;;13.70;5.63;;;;;;;;;;6229510;23;20246;-89
2022/11/22 06:50:43;;;;;;;13.80;6.10;;;;;;;;;;6231810;23;20218;-89
2022/11/22 06:53:49;;;;;;;13.87;6.87;;;;;;;;;;6228860;23;20167;-89
2022/11/22 06:56:56;;;;;;;13.93;6.30;;;;;;;;;;6232147;23;20171;-89
2022/11/22 07:00:02;;;;;;;14.60;6.17;;;;;;;;;;6230756;23;20170;-90
2022/11/22 07:03:07;;;;;;;15.83;6.27;;;;;;;;;;6232549;23;20174;-92
2022/11/22 07:06:14;;;;;;;14.87;6.07;;;;;;;;;;6233327;23;20174;-90
2022/11/22 07:09:20;;;;;;;13.33;6.50;;;;;;;;;;6232150;23;20170;-91
2022/11/22 07:12:28;;;;;;;15.60;6.33;;;;;;;;;;6232386;23;20259;-90
2022/11/22 07:15:33;;;;;;;12.00;5.80;;;;;;;;;;6228500;23;20257;-92
2022/11/22 07:18:38;;;;;;;13.50;6.13;;;;;;;;;;6229947;23;20171;-90
2022/11/22 07:21:44;;;;;;;11.93;6.40;;;;;;;;;;6229859;23;20259;-91
2022/11/22 07:24:48;;;;;;;11.77;6.17;;;;;;;;;;6229380;23;20245;-89
2022/11/22 07:27:55;;;;;;;16.53;6.17;;;;;;;;;;6229111;23;20171;-89
2022/11/22 07:31:00;;;;;;;13.80;5.90;;;;;;;;;;6229069;23;20507;-91
2022/11/22 07:34:05;;;;;;;12.47;6.50;;;;;;;;;;6230467;23;20171;-92
2022/11/22 07:37:10;;;;;;;13.07;6.03;;;;;;;;;;6227551;23;20163;-91
2022/11/22 07:40:16;;;;;;;12.47;6.23;;;;;;;;;;6228240;23;20219;-91
2022/11/22 07:43:22;;;;;;;12.17;6.40;;;;;;;;;;6227367;23;20191;-91
2022/11/22 07:46:52;;;;;;;11.77;5.70;;;;;;;;;;6227146;23;20263;-92
2022/11/22 07:49:58;;;;;;;14.10;6.27;;;;;;;;;;6229737;23;20214;-91
2022/11/22 07:53:03;;;;;;;10.03;5.53;;;;;;;;;;6227421;23;20179;-93
2022/11/22 07:56:08;;;;;;;12.90;6.20;;;;;;;;;;6228749;23;20194;-92
2022/11/22 07:59:15;;;;;;;10.70;6.17;;;;;;;;;;6228338;23;20167;-88
2022/11/22 08:02:21;;;;;;;16.10;6.37;;;;;;;;;;6226338;23;20174;-89
2022/11/22 08:05:26;;;;;;;15.27;6.47;;;;;;;;;;6227003;23;20594;-91
2022/11/22 08:08:31;;;;;;;13.27;6.43;;;;;;;;;;6228025;23;20171;-91
2022/11/22 08:11:37;;;;;;;19.00;6.77;;;;;;;;;;6227351;23;20222;-91
2022/11/22 08:14:46;;;;;;;17.13;7.00;;;;;;;;;;6226911;23;20194;-89
2022/11/22 08:17:51;;;;;;;16.70;7.43;;;;;;;;;;6228221;23;20190;-90
2022/11/22 08:21:03;;;;;;;13.17;5.93;;;;;;;;;;6227342;23;20218;-89
2022/11/22 08:24:08;;;;;;;17.80;7.67;;;;;;;;;;6228747;23;20175;-91
2022/11/22 08:27:13;;;;;;;19.03;8.67;;;;;;;;;;6229058;23;20167;-91
2022/11/22 08:30:24;;;;;;;15.40;8.30;;;;;;;;;;6227956;23;20171;-89
2022/11/22 08:33:30;;;;;;;14.43;8.00;;;;;;;;;;6230680;23;20162;-88
2022/11/22 08:36:38;;;;;;;17.53;8.87;;;;;;;;;;6228424;23;20205;-90
2022/11/22 08:39:44;;;;;;;12.93;6.73;;;;;;;;;;6231246;23;20179;-89
2022/11/22 08:42:50;;;;;;;14.53;6.90;;;;;;;;;;6230737;23;20499;-91
2022/11/22 08:50:19;;;;;;;13.13;6.50;;;;;;;;;;6231247;23;20190;-90
2022/11/22 08:53:24;;;;;;;18.03;7.10;;;;;;;;;;6229282;23;20519;-90
2022/11/22 08:56:29;;;;;;;11.47;5.60;;;;;;;;;;6231080;23;20210;-91
2022/11/22 08:59:34;;;;;;;13.43;5.93;;;;;;;;;;6232010;23;20211;-93
2022/11/22 09:02:39;;;;;;;15.20;6.70;;;;;;;;;;6231959;23;20162;-91
2022/11/22 09:05:46;;;;;;;15.50;6.20;;;;;;;;;;6233274;23;20171;-89
2022/11/22 09:08:51;;;;;;;11.73;6.30;;;;;;;;;;6230713;23;20191;-89
2022/11/22 09:11:56;;;;;;;10.73;5.80;;;;;;;;;;6231718;23;20195;-90
2022/11/22 09:15:03;;;;;;;13.27;6.17;;;;;;;;;;6230040;23;20179;-91
2022/11/22 09:18:08;;;;;;;11.27;6.17;;;;;;;;;;6230205;23;20178;-91
2022/11/22 09:21:16;;;;;;;11.43;6.53;;;;;;;;;;6230588;23;20613;-90
2022/11/22 09:24:22;;;;;;;14.33;6.73;;;;;;;;;;6232184;23;20186;-89
2022/11/22 09:27:27;;;;;;;12.10;6.53;;;;;;;;;;6231143;23;20166;-92
2022/11/22 09:30:31;;;;;;;9.83;6.13;;;;;;;;;;6232796;23;20195;-91
2022/11/22 09:36:58;;;;;;;13.17;6.87;;;;;;;;;;6234218;23;20214;-92
2022/11/22 09:40:03;;;;;;;13.80;6.67;;;;;;;;;;6232408;23;20242;-92
2022/11/22 09:43:15;;;;;;;14.63;7.03;;;;;;;;;;6232808;23;20159;-90
2022/11/22 09:50:53;;;;;;;16.80;8.37;;;;;;;;;;6233898;23;20148;-92
2022/11/22 09:54:03;;;;;;;14.03;7.03;;;;;;;;;;6230873;23;20167;-90
2022/11/22 09:57:12;;;;;;;18.33;7.73;;;;;;;;;;6231628;23;20730;-92
2022/11/22 10:00:20;;;;;;;14.23;7.67;;;;;;;;;;6232721;23;20163;-91
2022/11/22 10:03:27;;;;;;;13.83;7.00;;;;;;;;;;6233297;23;20171;-90
2022/11/22 10:06:34;;;;;;;15.07;7.23;;;;;;;;;;6231853;23;20191;-91
2022/11/22 10:09:44;;;;;;;19.10;8.03;;;;;;;;;;6231153;23;20239;-90
2022/11/22 10:12:53;;;;;;;13.10;6.70;;;;;;;;;;6229642;23;20200;-90
2022/11/22 10:16:03;;;;;;;14.30;7.70;;;;;;;;;;6229385;23;20180;-92
2022/11/22 10:19:12;;;;;;;20.33;8.53;;;;;;;;;;6229685;23;20242;-92
2022/11/22 10:22:19;;;;;;;18.73;7.03;;;;;;;;;;6229905;23;20622;-91
2022/11/22 10:25:33;;;;;;;16.40;8.17;;;;;;;;;;6229993;23;20167;-90
2022/11/22 10:28:43;;;;;;;20.47;7.50;;;;;;;;;;6229474;23;20183;-87
2022/11/22 10:31:51;;;;;;;16.53;7.50;;;;;;;;;;6230941;23;20147;-90
2022/11/22 10:35:05;;;;;;;19.33;8.90;;;;;;;;;;6232852;23;20167;-90
2022/11/22 10:38:28;;;;;;;23.83;8.87;;;;;;;;;;6231153;23;20167;-91
2022/11/22 10:41:45;;;;;;;18.07;9.13;;;;;;;;;;6231113;23;20237;-90
2022/11/22 10:44:55;;;;;;;21.63;8.50;;;;;;;;;;6233403;23;20155;-92
2022/11/22 10:52:34;;;;;;;16.13;8.37;;;;;;;;;;6231323;23;20480;-90
2022/11/22 10:55:51;;;;;;;15.23;7.93;;;;;;;;;;6234391;23;20277;-90
2022/11/22 10:59:05;;;;;;;17.30;8.30;;;;;;;;;;6232845;23;20171;-91
2022/11/22 11:02:17;;;;;;;16.80;8.07;;;;;;;;;;6230143;23;20170;-93
2022/11/22 11:05:26;;;;;;;18.20;9.07;;;;;;;;;;6228405;23;20167;-91
2022/11/22 11:08:35;;;;;;;19.47;8.70;;;;;;;;;;6232001;23;20167;-92
2022/11/22 11:11:41;;;;;;;19.23;8.63;;;;;;;;;;6230132;23;20167;-92
2022/11/22 11:14:51;;;;;;;20.50;8.90;;;;;;;;;;6229265;23;20179;-90
2022/11/22 11:17:58;;;;;;;14.53;8.17;;;;;;;;;;6227500;23;20195;-90
2022/11/22 11:21:05;;;;;;;15.40;7.70;;;;;;;;;;6228398;23;20167;-90
2022/11/22 11:24:13;;;;;;;15.20;8.47;;;;;;;;;;6229569;23;20211;-92
2022/11/22 11:27:19;;;;;;;20.03;8.43;;;;;;;;;;6230818;23;20171;-94
2022/11/22 11:30:26;;;;;;;21.03;8.27;;;;;;;;;;6230355;23;20167;-89
2022/11/22 11:33:33;;;;;;;17.30;7.93;;;;;;;;;;6229786;23;20240;-91
2022/11/22 11:36:39;;;;;;;16.77;8.43;;;;;;;;;;6229832;23;20194;-88
2022/11/22 11:43:22;;;;;;;14.43;8.23;;;;;;;;;;6231303;23;20183;-89
2022/11/22 11:46:30;;;;;;;17.13;8.73;;;;;;;;;;6230364;23;20590;-91
2022/11/22 11:49:36;;;;;;;20.93;9.00;;;;;;;;;;6228105;23;20243;-88
2022/11/22 11:52:41;;;;;;;20.40;9.20;;;;;;;;;;6230858;23;20179;-91
2022/11/22 11:55:46;;;;;;;15.77;8.77;;;;;;;;;;6230304;23;20214;-91
2022/11/22 11:58:52;;;;;;;17.90;8.70;;;;;;;;;;6231007;23;20167;-91
2022/11/22 12:02:19;;;;;;;17.10;7.87;;;;;;;;;;6231788;23;20172;-90
2022/11/22 12:05:35;;;;;;;17.00;8.67;;;;;;;;;;6229519;23;20156;-90
2022/11/22 12:08:43;;;;;;;14.70;7.37;;;;;;;;;;6230066;23;20167;-88
2022/11/22 12:11:52;;;;;;;17.37;8.40;;;;;;;;;;6231706;23;20187;-90
2022/11/22 12:15:04;;;;;;;17.87;8.50;;;;;;;;;;6230926;23;20207;-90
2022/11/22 12:18:19;;;;;;;22.33;9.67;;;;;;;;;;6229747;23;20194;-90
2022/11/22 12:21:30;;;;;;;18.57;8.73;;;;;;;;;;6229704;23;20194;-88
2022/11/22 12:24:46;;;;;;;20.00;9.30;;;;;;;;;;6232243;23;20183;-89
2022/11/22 12:27:51;;;;;;;17.63;8.37;;;;;;;;;;6229728;23;20234;-93
2022/11/22 12:30:57;;;;;;;18.83;9.30;;;;;;;;;;6229744;23;20163;-88
2022/11/22 12:34:06;;;;;;;17.37;9.07;;;;;;;;;;6229006;23;20175;-90
2022/11/22 12:37:18;;;;;;;19.50;9.47;;;;;;;;;;6230837;23;20551;-90
2022/11/22 12:40:25;;;;;;;20.13;9.60;;;;;;;;;;6231194;23;20163;-90
2022/11/22 12:43:36;;;;;;;40.63;18.33;;;;;;;;;;6229995;23;20187;-92
2022/11/22 12:46:52;;;;;;;19.53;9.93;;;;;;;;;;6230850;23;20236;-88
2022/11/22 12:49:59;;;;;;;20.33;10.40;;;;;;;;;;6229409;23;20279;-90
2022/11/22 12:53:11;;;;;;;26.40;12.93;;;;;;;;;;6229372;23;20155;-90
2022/11/22 12:56:23;;;;;;;24.77;11.83;;;;;;;;;;6229087;23;20333;-89
2022/11/22 12:59:35;;;;;;;21.03;10.67;;;;;;;;;;6229606;23;20802;-90
2022/11/22 13:02:44;;;;;;;22.67;10.43;;;;;;;;;;6228516;23;20218;-92
2022/11/22 13:05:50;;;;;;;23.80;12.13;;;;;;;;;;6231611;23;20179;-88
2022/11/22 13:09:00;;;;;;;25.73;11.83;;;;;;;;;;6230380;23;20175;-88
2022/11/22 13:12:08;;;;;;;19.87;10.27;;;;;;;;;;6229739;23;20227;-92
2022/11/22 13:15:34;;;;;;;20.43;11.07;;;;;;;;;;6238662;23;20148;-91
2022/11/22 13:18:48;;;;;;;22.87;10.50;;;;;;;;;;6241324;22;20182;-91
2022/11/22 13:22:03;;;;;;;23.37;10.60;;;;;;;;;;6203811;22;20191;-90
2022/11/22 13:25:31;;;;;;;21.53;10.80;;;;;;;;;;6228044;23;20302;-91
2022/11/22 13:28:39;;;;;;;19.60;10.50;;;;;;;;;;6204903;23;20193;-92
2022/11/22 13:31:58;;;;;;;40.60;18.27;;;;;;;;;;6146354;23;20215;-89
2022/11/22 13:35:06;;;;;;;29.37;12.83;;;;;;;;;;5855642;24;20232;-90
2022/11/22 16:16:33;;;;;;;38.63;15.90;;;;;;;;;;5513171;22;16235637;-88
2022/11/22 16:19:39;;;;;;;41.93;16.70;;;;;;;;;;6228437;23;20201;-88
2022/11/22 16:22:44;;;;;;;46.27;18.30;;;;;;;;;;6229981;23;20315;-89
2022/11/22 16:25:50;;;;;;;47.00;23.83;;;;;;;;;;6229869;23;20243;-90
2022/11/22 16:28:57;;;;;;;44.93;17.40;;;;;;;;;;6231131;23;20243;-89
2022/11/22 16:32:05;;;;;;;31.33;14.60;;;;;;;;;;6228497;23;20218;-90
2022/11/22 16:35:13;;;;;;;40.07;16.10;;;;;;;;;;6230524;23;20192;-90
2022/11/22 16:38:19;;;;;;;35.57;15.33;;;;;;;;;;6228531;23;20178;-87
2022/11/22 16:41:25;;;;;;;34.17;14.53;;;;;;;;;;6230165;23;20198;-90
2022/11/22 16:44:31;;;;;;;31.30;14.30;;;;;;;;;;6230173;23;20174;-91
2022/11/22 16:47:37;;;;;;;36.60;16.30;;;;;;;;;;6230210;23;20203;-89
2022/11/22 16:50:43;;;;;;;36.67;17.07;;;;;;;;;;6229573;23;20163;-91
2022/11/22 16:53:53;;;;;;;32.23;15.30;;;;;;;;;;6228332;23;20171;-90
2022/11/22 16:56:58;;;;;;;34.40;14.67;;;;;;;;;;6230099;23;20163;-90
2022/11/22 17:00:04;;;;;;;29.83;14.07;;;;;;;;;;6228669;23;20175;-90
2022/11/22 17:03:12;;;;;;;31.77;14.40;;;;;;;;;;6230420;23;20202;-91
2022/11/22 17:06:18;;;;;;;29.63;13.97;;;;;;;;;;6229627;23;20159;-90
2022/11/22 17:09:23;;;;;;;31.33;14.90;;;;;;;;;;6228299;23;20301;-91
2022/11/22 17:12:29;;;;;;;34.27;15.03;;;;;;;;;;6228258;23;20167;-89
2022/11/22 17:15:34;;;;;;;28.50;13.53;;;;;;;;;;6231997;23;20175;-90
2022/11/22 17:18:41;;;;;;;35.00;16.30;;;;;;;;;;6206673;23;20495;-91
2022/11/22 17:21:47;;;;;;;32.87;15.73;;;;;;;;;;6182140;23;20309;-91
2022/11/22 17:24:52;;;;;;;32.40;15.87;;;;;;;;;;6129879;23;20192;-90
2022/11/22 17:27:57;;;;;;;37.33;17.63;;;;;;;;;;6149600;23;20169;-90
2022/11/22 17:31:05;;;;;;;30.97;15.10;;;;;;;;;;6151118;23;20212;-90
2022/11/22 17:34:12;;;;;;;36.90;16.07;;;;;;;;;;6150742;23;20503;-89
2022/11/22 17:37:18;;;;;;;30.87;14.97;;;;;;;;;;6149466;23;20196;-90
2022/11/22 17:40:23;;;;;;;27.07;13.40;;;;;;;;;;6150834;23;20264;-90
2022/11/22 17:43:29;;;;;;;30.90;14.10;;;;;;;;;;6152192;23;20207;-91
2022/11/22 17:46:38;;;;;;;29.17;14.60;;;;;;;;;;6154857;23;20220;-89
2022/11/22 17:49:45;;;;;;;34.97;15.67;;;;;;;;;;6153349;23;20181;-90
2022/11/22 17:52:52;;;;;;;27.37;12.83;;;;;;;;;;6151467;23;20184;-90
2022/11/22 17:56:08;;;;;;;28.97;13.03;;;;;;;;;;6151883;23;20160;-91
2022/11/22 17:59:18;;;;;;;34.50;15.40;;;;;;;;;;6153973;23;20216;-89
2022/11/22 18:02:24;;;;;;;35.93;14.93;;;;;;;;;;6153067;23;20551;-91
2022/11/22 18:05:31;;;;;;;34.40;14.93;;;;;;;;;;6152841;23;20172;-91
2022/11/22 18:08:37;;;;;;;32.67;14.77;;;;;;;;;;6151469;23;20216;-90
2022/11/22 18:11:43;;;;;;;33.57;14.97;;;;;;;;;;6152173;23;20156;-91
2022/11/22 18:14:48;;;;;;;32.60;15.17;;;;;;;;;;6153443;23;20197;-91
2022/11/22 18:17:54;;;;;;;47.73;18.27;;;;;;;;;;6153292;23;20201;-91
2022/11/22 18:21:01;;;;;;;42.97;16.37;;;;;;;;;;6152427;23;20632;-89
2022/11/22 18:24:07;;;;;;;28.90;13.37;;;;;;;;;;6193714;23;20190;-91
2022/11/22 18:27:38;;;;;;;38.73;16.40;;;;;;;;;;6213045;23;20215;-91
2022/11/22 18:30:44;;;;;;;32.77;15.03;;;;;;;;;;6215166;23;20167;-89
2022/11/22 18:33:51;;;;;;;27.73;13.20;;;;;;;;;;6214945;23;20184;-92
2022/11/22 18:36:58;;;;;;;28.93;13.50;;;;;;;;;;6215287;23;20544;-91
2022/11/22 18:40:04;;;;;;;27.30;12.70;;;;;;;;;;6212107;23;20232;-91
2022/11/22 18:43:09;;;;;;;28.27;14.40;;;;;;;;;;6213984;23;20222;-91
2022/11/22 18:46:14;;;;;;;29.00;13.60;;;;;;;;;;6214343;23;20163;-91
2022/11/22 18:49:20;;;;;;;31.13;14.07;;;;;;;;;;6213565;23;20175;-91
2022/11/22 18:52:33;;;;;;;29.73;12.50;;;;;;;;;;6216951;23;20227;-91
2022/11/22 18:55:38;;;;;;;26.33;12.40;;;;;;;;;;6214642;23;20247;-89
2022/11/22 18:58:44;;;;;;;23.13;11.40;;;;;;;;;;6214076;23;20236;-91
2022/11/22 19:01:49;;;;;;;27.07;12.10;;;;;;;;;;6214090;23;20195;-91
2022/11/22 19:04:55;;;;;;;24.80;11.87;;;;;;;;;;6216062;23;20662;-90
2022/11/22 19:08:03;;;;;;;24.30;11.77;;;;;;;;;;6213902;23;20291;-90
2022/11/22 19:11:08;;;;;;;25.40;11.87;;;;;;;;;;6211864;23;20203;-92
2022/11/22 19:14:13;;;;;;;23.00;11.20;;;;;;;;;;6211643;23;20232;-90
2022/11/22 19:17:19;;;;;;;23.90;11.13;;;;;;;;;;6212214;23;20171;-91
2022/11/22 19:20:28;;;;;;;24.37;10.47;;;;;;;;;;6211637;23;20151;-91
2022/11/22 19:23:35;;;;;;;30.63;13.60;;;;;;;;;;6217006;23;20234;-92
